GCHIGCGM

Guest
Details From GCHI - Hierro
To GCGM - La Gomera
Flight Number -
Tags generated
Created
Modified
Stats Distance 38 nm / 70 km
Max Altitude 1,400 ft / 427 m
Waypoints 3
Social Downloads 0
Likes 0
Share VATSIM

Download

Looking for another format? Having issues loading an existing format? Contact us
Advertisement - Login to hide

Notes

Basic altitude profile: - Ascent Rate: 2500ft/min - Ascent Speed: 250kts - Cruise Altitude: 35000ft - Cruise Speed: 420kts - Descent Rate: 1500ft/min - Descent Speed: 250kts Options: - Use NATs: yes - Use PACOTS: yes - Use low airways: yes - Use high airways: yes

Route

GCHI GOMER GCGM

ID Type Via Altitude Latitude Longitude Leg Dist Tot Dist Heading (true) Name
O GCHI APT - 0 ft / 0 m 27.81485˚ -17.88705˚ - 0 nm - Hierro
GOMER FIX - 1,400 ft / 427 m 28.00000˚ -17.33333˚ 31 nm 31 nm 69° / 69° -
O GCGM APT - 0 ft / 0 m 28.02963˚ -17.21460˚ 6 nm 37 nm 74° / 74° La Gomera

Altitude Profile

Advertisement - Login to hide

GCHI

Details ICAO GCHI (VDE)
Name Hierro
Region Canary Islands
Timezone Atlantic/Canary (UTC+1.0)
Stats Elevation 103 ft / 31 m (AMSL)
Location 27.814722° -17.886944°
Runways 1
Magnetic Variation 5.550° W

METAR

GCHI 152000Z AUTO 34019G30KT 310V020 9999 ////// 23/19 Q1020

Decode

TAF

TAF GCHI 151400Z 1515/1615 34019KT 9999 FEW020 TX26/1614Z TN21/1605Z TEMPO 1515/1615 34019G31KT

Decode

Departure Runways

ID Width Length Bearing (true/mag) Surface Threshold Overrun Markings Lighting
16 98 ft / 30 m 4,110 ft / 1,253 m 152.71° / 158.26° ASPHALT 0 ft / 0 m 0 ft / 0 m APP CENTERLINE EDGE THRESHOLD MALSF
34 98 ft / 30 m 4,110 ft / 1,253 m 332.71° / 338.26° ASPHALT 0 ft / 0 m 0 ft / 0 m APP CENTERLINE EDGE THRESHOLD MALSF

GCGM

Details ICAO GCGM (GMZ)
Name La Gomera
Region Canary Islands
Timezone Atlantic/Canary (UTC+1.0)
Stats Elevation 714 ft / 218 m (AMSL)
Location 28.029623° -17.214599°
Runways 1
Magnetic Variation 5.280° W

METAR

GCGM 152000Z AUTO 21003KT 180V260 9999 NCD 23/19 Q1020 RMK R09/VRB01KT ARP/VRB02KT

Decode

TAF

TAF GCGM 151400Z 1515/1615 23006KT CAVOK TX27/1614Z TN21/1605Z= TAF GCHI 151400Z 1515/1615 34019KT 9999 FEW020 TX26/1614Z TN21/1605Z TEMPO 1515/1615 34019G31KT

Decode

Destination Runways

ID Width Length Bearing (true/mag) Surface Threshold Overrun Markings Lighting
09 98 ft / 30 m 4,926 ft / 1,501 m 81.17° / 86.45° ASPHALT 0 ft / 0 m 0 ft / 0 m PREC-APP EDGE THRESHOLD REIL-OMNI
27 98 ft / 30 m 4,926 ft / 1,501 m 261.18° / 266.46° ASPHALT 0 ft / 0 m 0 ft / 0 m PREC-APP EDGE THRESHOLD REIL-OMNI

Popular Alternatives